SARP/PSS METAR and TAF weather

Enter ICAO airport designator
Station Type Date Time Source
SARP METAR 2019/04/23 00:00 UTC NOAA

SARP 230000Z 14006KT 9999 FEW030 BKN100 22/19 Q1014


Station Type Date Time Source
SARP Decoded METAR 2019/04/23 00:00 UTC NOAA

Posadas Aero., Argentina (SARP) 27-22S 055-58W 133M
Apr 22, 2019 - 08:00 PM EDT / 2019.04.23 0000 UTC
Wind: from the SE (140 degrees) at 7 MPH (6 KT):0
Visibility: greater than 7 mile(s):0
Sky conditions: mostly cloudy
Temperature: 71 F (22 C)
Dew Point: 66 F (19 C)
Relative Humidity: 83%
Pressure (altimeter): 29.94 in. Hg (1014 hPa)
ob: SARP 230000Z 14006KT 9999 FEW030 BKN100 22/19 Q1014
cycle: 0

Station Type Date Time Source
SARP TAF 2019/04/23 00:00 UTC NOAA

TAF SARP 222300Z 2300/2324 14010KT 9999 FEW020 SCT090 TX29/2318Z TN18/2309Z
BECMG 2307/2308 2000 BR
BECMG 2312/2314 9999 NSW
BECMG 2316/2318 SCT025 FEW045TCU

Example: see airport list